Time;durP1;ratioP1;P1;durP2;ratioP2;P2;SDS_P1;SDS_P2;PMS_P1;PMS_P2;Temp;Humidity;BMP_temperature;BMP_pressure;BME280_temperature;BME280_humidity;BME280_pressure;Samples;Min_cycle;Max_cycle;Signal;HPM_P1;HPM_P2
2022/05/28 00:01:14;;;;;;;13.70;12.67;;;7.30;99.90;;;;;;5080782;28;20478;-67
2022/05/28 00:03:41;;;;;;;15.27;13.70;;;7.20;99.90;;;;;;5080906;28;20455;-68
2022/05/28 00:06:13;;;;;;;16.80;15.50;;;7.20;99.90;;;;;;5072891;28;20494;-68
2022/05/28 00:08:40;;;;;;;15.20;13.90;;;7.20;99.90;;;;;;5078271;28;20853;-67
2022/05/28 00:11:13;;;;;;;15.57;13.90;;;7.20;99.90;;;;;;5072275;28;20454;-68
2022/05/28 00:13:40;;;;;;;21.00;13.60;;;7.30;99.90;;;;;;5081733;28;20465;-68
2022/05/28 00:16:07;;;;;;;14.23;13.23;;;7.30;99.90;;;;;;5085414;28;20460;-67
2022/05/28 00:18:37;;;;;;;15.53;14.40;;;7.40;99.90;;;;;;5080092;28;20955;-67
2022/05/28 00:21:03;;;;;;;15.00;13.40;;;7.40;99.90;;;;;;5079851;28;20472;-67
2022/05/28 00:23:32;;;;;;;17.23;12.70;;;7.50;99.90;;;;;;5079356;28;20482;-68
2022/05/28 00:25:58;;;;;;;17.50;13.40;;;7.60;99.90;;;;;;5085512;28;20499;-67
2022/05/28 00:28:25;;;;;;;14.83;13.60;;;7.60;99.90;;;;;;5080841;28;20464;-68
2022/05/28 00:30:52;;;;;;;14.33;12.77;;;7.50;99.90;;;;;;5079596;28;20471;-68
2022/05/28 00:33:19;;;;;;;15.93;14.17;;;7.50;99.90;;;;;;5086103;28;20495;-68
2022/05/28 00:35:46;;;;;;;14.87;13.40;;;7.60;99.90;;;;;;5081034;28;20548;-68
2022/05/28 00:38:13;;;;;;;13.93;13.00;;;7.60;99.90;;;;;;5080468;28;20901;-67
2022/05/28 00:40:46;;;;;;;14.43;13.33;;;7.70;99.90;;;;;;5082390;28;20466;-67
2022/05/28 00:43:14;;;;;;;14.73;13.53;;;7.70;99.90;;;;;;5081437;28;20468;-67
2022/05/28 00:45:42;;;;;;;14.40;13.00;;;7.70;99.90;;;;;;5081069;28;20473;-68
2022/05/28 00:48:13;;;;;;;15.53;14.13;;;7.50;99.90;;;;;;5087261;28;21030;-67
2022/05/28 00:50:41;;;;;;;14.13;12.80;;;7.70;99.90;;;;;;5083127;28;20479;-68
2022/05/28 00:53:08;;;;;;;13.87;11.50;;;7.90;99.90;;;;;;5078167;28;20930;-68
2022/05/28 00:55:36;;;;;;;12.57;10.87;;;8.20;99.90;;;;;;5077759;28;20466;-68
2022/05/28 00:58:10;;;;;;;17.33;11.03;;;8.40;99.90;;;;;;5085516;28;20809;-68
2022/05/28 01:00:38;;;;;;;15.77;11.70;;;8.60;99.90;;;;;;5081812;28;20943;-68
2022/05/28 01:03:15;;;;;;;15.03;12.00;;;8.80;99.90;;;;;;5076763;28;20475;-68
2022/05/28 01:05:47;;;;;;;15.60;11.67;;;9.00;99.90;;;;;;5077488;28;20469;-68
2022/05/28 01:08:19;;;;;;;16.37;10.50;;;9.10;99.90;;;;;;5084029;28;20499;-68
2022/05/28 01:10:53;;;;;;;15.57;10.23;;;9.10;99.90;;;;;;5074641;28;20819;-68
2022/05/28 01:13:26;;;;;;;16.53;10.17;;;9.10;99.90;;;;;;5076524;28;20557;-68
2022/05/28 01:16:00;;;;;;;12.30;9.30;;;9.20;99.90;;;;;;5085200;28;20457;-67
2022/05/28 01:18:33;;;;;;;14.77;10.70;;;9.20;99.90;;;;;;5078695;28;20477;-67
2022/05/28 01:21:05;;;;;;;11.80;9.00;;;9.20;99.90;;;;;;5079751;28;20460;-67
2022/05/28 01:23:45;;;;;;;12.03;9.93;;;9.30;99.90;;;;;;5077080;28;20462;-67
2022/05/28 01:26:18;;;;;;;9.30;8.60;;;9.30;99.90;;;;;;5074222;28;20481;-68
2022/05/28 01:28:52;;;;;;;10.77;9.87;;;9.30;99.90;;;;;;5076949;28;20699;-67
2022/05/28 01:31:21;;;;;;;19.83;10.40;;;9.30;99.90;;;;;;5078676;28;20956;-67
2022/05/28 01:33:49;;;;;;;14.43;9.90;;;9.30;99.90;;;;;;5087177;28;20461;-68
2022/05/28 01:36:18;;;;;;;11.97;9.43;;;9.20;99.90;;;;;;5081431;28;20453;-68
2022/05/28 01:38:46;;;;;;;11.03;9.90;;;9.20;99.90;;;;;;5074784;28;20463;-66
2022/05/28 01:41:14;;;;;;;10.37;9.57;;;9.20;99.90;;;;;;5080578;28;20885;-67
2022/05/28 01:43:45;;;;;;;18.60;12.33;;;9.20;99.90;;;;;;5083532;28;20471;-67
2022/05/28 01:46:17;;;;;;;12.47;9.80;;;9.10;99.90;;;;;;5085825;28;20484;-67
2022/05/28 01:48:46;;;;;;;11.03;9.90;;;9.20;99.90;;;;;;5085003;28;20834;-68
2022/05/28 01:51:15;;;;;;;21.63;10.80;;;9.20;99.90;;;;;;5079893;28;20468;-67
2022/05/28 01:56:30;;;;;;;15.37;10.90;;;9.40;99.90;;;;;;5079183;28;20511;-67
2022/05/28 01:58:58;;;;;;;21.57;10.97;;;9.50;99.90;;;;;;5078013;28;20456;-67
2022/05/28 02:01:27;;;;;;;13.23;10.10;;;9.60;99.90;;;;;;5072963;28;20467;-67
2022/05/28 02:04:01;;;;;;;15.60;10.10;;;9.70;99.90;;;;;;5085199;28;20460;-68
2022/05/28 02:06:29;;;;;;;16.90;10.90;;;9.60;99.90;;;;;;5084498;28;20492;-67
2022/05/28 02:08:57;;;;;;;13.33;10.43;;;9.60;99.90;;;;;;5077272;28;20808;-68
2022/05/28 02:11:26;;;;;;;15.53;10.37;;;9.80;99.90;;;;;;5077222;28;20465;-67
2022/05/28 02:14:03;;;;;;;16.23;10.37;;;9.80;99.90;;;;;;5081104;28;20527;-67
2022/05/28 02:16:39;;;;;;;11.87;9.83;;;9.90;99.90;;;;;;5084928;28;20467;-68
2022/05/28 02:19:13;;;;;;;11.60;9.63;;;9.90;99.90;;;;;;5083457;28;20469;-68
2022/05/28 02:21:43;;;;;;;12.90;9.20;;;9.80;99.90;;;;;;5077319;28;20458;-67
2022/05/28 02:24:17;;;;;;;13.10;10.50;;;9.80;99.90;;;;;;5078291;28;20530;-68
2022/05/28 02:26:49;;;;;;;11.10;10.00;;;9.80;99.90;;;;;;5078792;28;20499;-69
2022/05/28 02:29:18;;;;;;;10.97;9.83;;;10.00;99.90;;;;;;5077558;28;20464;-68
2022/05/28 02:31:48;;;;;;;14.97;10.00;;;9.90;99.90;;;;;;5083570;28;20476;-68
2022/05/28 02:34:16;;;;;;;10.93;9.97;;;9.90;99.90;;;;;;5080723;28;20461;-68
2022/05/28 02:36:43;;;;;;;10.27;9.53;;;9.90;99.90;;;;;;5080798;28;20470;-68
2022/05/28 02:39:11;;;;;;;18.33;10.13;;;9.90;99.90;;;;;;5074337;28;20484;-67
2022/05/28 02:41:39;;;;;;;13.00;10.40;;;10.00;99.90;;;;;;5080555;28;20486;-68
2022/05/28 02:44:07;;;;;;;16.07;10.60;;;9.90;99.90;;;;;;5079981;28;20466;-68
2022/05/28 02:46:35;;;;;;;13.07;10.00;;;9.90;99.90;;;;;;5080912;28;20485;-68
2022/05/28 02:49:04;;;;;;;11.70;10.50;;;9.90;99.90;;;;;;5078406;28;20460;-69
2022/05/28 02:51:31;;;;;;;12.13;11.00;;;9.70;99.90;;;;;;5082258;28;20464;-68
2022/05/28 02:53:58;;;;;;;17.40;10.70;;;9.60;99.90;;;;;;5081933;28;20473;-68
2022/05/28 02:56:25;;;;;;;13.27;10.80;;;9.40;99.90;;;;;;5081701;28;20462;-68
2022/05/28 02:58:52;;;;;;;16.70;10.90;;;9.30;99.90;;;;;;5077387;28;20454;-69
2022/05/28 03:01:25;;;;;;;16.27;11.27;;;9.20;99.90;;;;;;5076049;28;20476;-68
2022/05/28 03:03:53;;;;;;;13.10;11.03;;;9.10;99.90;;;;;;5082890;28;20454;-69
2022/05/28 03:06:22;;;;;;;18.93;11.70;;;8.90;99.90;;;;;;5081335;28;20467;-67
2022/05/28 03:08:49;;;;;;;19.00;11.83;;;8.90;99.90;;;;;;5075139;28;20842;-68
2022/05/28 03:11:17;;;;;;;15.00;10.90;;;8.80;99.90;;;;;;5074909;28;20879;-68
2022/05/28 03:13:44;;;;;;;12.40;10.97;;;8.60;99.90;;;;;;5080290;28;20461;-68
2022/05/28 03:16:11;;;;;;;20.67;11.67;;;8.50;99.90;;;;;;5080521;28;20478;-68
2022/05/28 03:18:38;;;;;;;13.03;11.87;;;8.40;99.90;;;;;;5083557;28;20801;-69
2022/05/28 03:21:06;;;;;;;17.70;11.50;;;8.30;99.90;;;;;;5079279;28;21002;-69
2022/05/28 03:23:36;;;;;;;12.63;11.50;;;8.30;99.90;;;;;;5079583;28;20466;-68
2022/05/28 03:26:12;;;;;;;13.50;11.60;;;8.30;99.90;;;;;;5077882;28;20469;-68
2022/05/28 03:28:40;;;;;;;16.30;11.57;;;8.20;99.90;;;;;;5071714;28;20493;-66
2022/05/28 03:31:07;;;;;;;18.80;11.83;;;8.10;99.90;;;;;;5078622;28;20520;-67
2022/05/28 03:33:36;;;;;;;17.13;11.47;;;8.10;99.90;;;;;;5079266;28;20457;-68
2022/05/28 03:36:03;;;;;;;15.03;12.30;;;8.00;99.90;;;;;;5077354;28;20446;-67
2022/05/28 03:38:29;;;;;;;15.73;11.40;;;8.00;99.90;;;;;;5077468;28;20469;-67
2022/05/28 03:40:59;;;;;;;13.03;11.80;;;8.00;99.90;;;;;;5078760;28;20498;-68
2022/05/28 03:43:26;;;;;;;13.23;11.93;;;7.90;99.90;;;;;;5076726;28;20957;-68
2022/05/28 03:45:54;;;;;;;20.70;11.60;;;7.90;99.90;;;;;;5072606;28;20487;-67
2022/05/28 03:48:22;;;;;;;15.97;11.80;;;7.90;99.90;;;;;;5082822;28;21018;-67
2022/05/28 03:50:49;;;;;;;14.73;11.10;;;7.90;99.90;;;;;;5084332;28;20466;-67
2022/05/28 03:53:16;;;;;;;14.50;11.60;;;7.80;99.90;;;;;;5081035;28;20452;-67
2022/05/28 03:55:44;;;;;;;12.97;11.47;;;7.80;99.90;;;;;;5081725;28;20853;-67
2022/05/28 03:58:28;;;;;;;17.17;11.30;;;7.80;99.90;;;;;;5086573;28;20656;-67
2022/05/28 04:00:55;;;;;;;21.77;12.13;;;7.80;99.90;;;;;;5077095;28;20497;-67
2022/05/28 04:03:22;;;;;;;25.13;11.87;;;7.80;99.90;;;;;;5054467;28;20543;-68
2022/05/28 04:05:49;;;;;;;12.30;10.40;;;7.90;99.90;;;;;;5051804;28;20530;-67
2022/05/28 04:08:16;;;;;;;12.40;11.10;;;8.00;99.90;;;;;;5079523;28;20894;-67
2022/05/28 04:10:43;;;;;;;16.60;10.70;;;8.00;99.90;;;;;;5076719;28;20473;-67
2022/05/28 04:13:12;;;;;;;15.63;11.40;;;8.00;99.90;;;;;;5079504;28;20981;-66
2022/05/28 04:15:38;;;;;;;13.90;11.67;;;8.00;99.90;;;;;;5080062;28;20471;-68
2022/05/28 04:18:07;;;;;;;12.00;10.80;;;8.10;99.90;;;;;;5061142;28;20666;-67
2022/05/28 04:20:35;;;;;;;20.80;11.17;;;8.10;99.90;;;;;;5078782;28;20850;-67
2022/05/28 04:23:01;;;;;;;17.60;11.40;;;8.10;99.90;;;;;;5087510;28;21070;-67
2022/05/28 04:25:28;;;;;;;14.63;11.00;;;8.10;99.90;;;;;;5082163;28;20461;-68
2022/05/28 04:27:55;;;;;;;16.43;10.27;;;8.20;99.90;;;;;;5064988;28;20496;-67
2022/05/28 04:30:23;;;;;;;12.77;11.50;;;8.30;99.90;;;;;;5048524;28;20463;-67
2022/05/28 04:32:50;;;;;;;12.77;11.37;;;8.30;99.90;;;;;;5051015;28;20459;-68
2022/05/28 04:35:17;;;;;;;19.63;11.07;;;8.40;99.90;;;;;;5050940;28;20472;-67
2022/05/28 04:37:44;;;;;;;11.40;10.30;;;8.60;99.90;;;;;;5050704;28;20458;-67
2022/05/28 04:40:12;;;;;;;26.70;12.07;;;8.70;99.90;;;;;;5051281;28;20536;-68
2022/05/28 04:42:39;;;;;;;20.63;11.03;;;8.80;99.90;;;;;;5050865;28;20969;-67
2022/05/28 04:45:07;;;;;;;13.13;10.70;;;8.90;99.90;;;;;;5050712;28;20513;-68
2022/05/28 04:47:35;;;;;;;25.03;11.73;;;9.00;99.90;;;;;;5050477;28;20494;-67
2022/05/28 04:50:02;;;;;;;18.23;10.23;;;9.00;99.90;;;;;;5051039;28;20464;-67
2022/05/28 04:52:29;;;;;;;14.70;9.60;;;9.10;99.90;;;;;;5051460;28;20462;-67
2022/05/28 04:54:56;;;;;;;15.40;9.97;;;9.20;99.90;;;;;;5051226;28;20474;-68
2022/05/28 04:57:23;;;;;;;17.27;9.77;;;9.20;99.90;;;;;;5050088;28;20469;-67
2022/05/28 04:59:50;;;;;;;17.77;9.10;;;9.40;99.90;;;;;;5048709;28;20882;-66
2022/05/28 05:02:16;;;;;;;26.83;10.87;;;9.50;99.90;;;;;;5049726;28;20922;-67
2022/05/28 05:04:45;;;;;;;19.87;10.83;;;9.60;99.90;;;;;;5049316;28;20490;-67
2022/05/28 05:07:12;;;;;;;15.43;10.30;;;9.70;99.90;;;;;;5051127;28;20506;-67
2022/05/28 05:09:39;;;;;;;11.07;9.87;;;9.80;99.90;;;;;;5050529;28;20473;-68
2022/05/28 05:12:06;;;;;;;18.33;9.70;;;9.90;99.90;;;;;;5060682;28;20477;-66
2022/05/28 05:14:33;;;;;;;19.07;10.00;;;9.90;99.90;;;;;;5079691;28;20467;-67
2022/05/28 05:17:00;;;;;;;18.53;9.80;;;10.00;99.90;;;;;;5051607;28;20767;-68
2022/05/28 05:19:26;;;;;;;15.50;10.17;;;10.10;99.90;;;;;;5049911;28;20823;-67
2022/05/28 05:21:56;;;;;;;23.73;9.63;;;10.20;99.90;;;;;;5050544;28;20471;-68
2022/05/28 05:24:23;;;;;;;12.60;9.43;;;10.30;99.90;;;;;;5051875;28;21848;-67
2022/05/28 05:26:50;;;;;;;17.63;8.87;;;10.40;99.90;;;;;;5050885;28;20450;-67
2022/05/28 05:29:17;;;;;;;20.33;10.33;;;10.50;99.90;;;;;;5049804;28;20498;-68
2022/05/28 05:31:44;;;;;;;15.80;9.03;;;10.60;99.90;;;;;;5050372;28;20462;-68
2022/05/28 05:34:11;;;;;;;27.83;9.67;;;10.70;99.90;;;;;;5050080;28;20480;-69
2022/05/28 05:36:38;;;;;;;15.37;9.57;;;10.70;99.90;;;;;;5050335;28;20522;-67
2022/05/28 05:39:06;;;;;;;19.90;10.37;;;10.80;99.90;;;;;;5049006;28;20931;-68
2022/05/28 05:41:34;;;;;;;15.20;8.97;;;10.90;99.90;;;;;;5048293;28;20473;-68
2022/05/28 05:44:00;;;;;;;17.50;9.87;;;11.10;99.90;;;;;;5047631;28;22868;-68
2022/05/28 05:46:28;;;;;;;21.40;9.80;;;11.20;99.90;;;;;;5049470;28;20493;-67
2022/05/28 05:48:55;;;;;;;14.60;9.57;;;11.30;99.90;;;;;;5066026;28;20498;-67
2022/05/28 05:51:21;;;;;;;28.83;9.77;;;11.40;99.90;;;;;;5057622;28;20896;-68
2022/05/28 05:53:48;;;;;;;27.20;10.63;;;11.40;99.90;;;;;;5049809;28;21143;-67
2022/05/28 05:56:16;;;;;;;14.30;9.90;;;11.50;99.90;;;;;;5054808;28;20576;-68
2022/05/28 05:58:44;;;;;;;23.97;9.87;;;11.60;99.90;;;;;;5060318;28;20573;-67
2022/05/28 06:01:10;;;;;;;15.53;10.20;;;11.60;99.90;;;;;;5065735;28;20753;-68
2022/05/28 06:03:38;;;;;;;11.83;9.23;;;11.70;99.90;;;;;;5047977;28;21260;-67
2022/05/28 06:06:06;;;;;;;15.80;10.23;;;11.80;99.90;;;;;;5048196;28;20971;-67
2022/05/28 06:08:33;;;;;;;14.97;10.57;;;11.90;99.90;;;;;;5047818;28;20498;-67
2022/05/28 06:11:00;;;;;;;19.77;10.03;;;12.00;99.90;;;;;;5047398;28;20869;-68
2022/05/28 06:13:28;;;;;;;22.30;10.37;;;12.10;99.90;;;;;;5047850;28;20478;-68
2022/05/28 06:15:55;;;;;;;13.80;9.90;;;12.10;99.90;;;;;;5047323;28;20455;-67
2022/05/28 06:18:22;;;;;;;18.03;10.13;;;12.20;99.90;;;;;;5045944;28;20480;-67
2022/05/28 06:20:50;;;;;;;14.17;9.80;;;12.30;99.90;;;;;;5046613;28;20501;-68
2022/05/28 06:23:18;;;;;;;16.27;10.10;;;12.40;99.90;;;;;;5047283;28;21202;-67
2022/05/28 06:25:44;;;;;;;11.40;10.40;;;12.50;99.90;;;;;;5047145;28;20470;-68
2022/05/28 06:28:11;;;;;;;13.40;10.40;;;12.60;99.90;;;;;;5047532;28;20486;-68
2022/05/28 06:30:42;;;;;;;14.37;9.57;;;12.80;99.90;;;;;;5046611;28;20511;-68
2022/05/28 06:33:09;;;;;;;16.70;10.27;;;13.00;99.90;;;;;;5046425;28;20971;-68
2022/05/28 06:35:36;;;;;;;10.63;9.57;;;13.10;99.90;;;;;;5046597;28;20479;-67
2022/05/28 06:38:03;;;;;;;11.40;10.27;;;13.00;99.90;;;;;;5047021;28;20471;-69
2022/05/28 06:40:31;;;;;;;11.27;10.13;;;12.70;99.90;;;;;;5046855;28;20478;-69
2022/05/28 06:42:58;;;;;;;14.83;10.50;;;12.50;99.90;;;;;;5047353;28;20682;-68
2022/05/28 06:45:26;;;;;;;12.10;10.90;;;12.50;99.90;;;;;;5047278;28;20830;-68
2022/05/28 06:47:54;;;;;;;12.93;10.80;;;12.50;99.90;;;;;;5046598;28;20464;-67
2022/05/28 06:53:08;;;;;;;15.23;11.70;;;12.90;99.90;;;;;;5046762;28;20512;-70
2022/05/28 06:55:36;;;;;;;17.00;12.93;;;13.10;99.90;;;;;;5046032;28;20490;-69
2022/05/28 06:58:03;;;;;;;12.70;11.30;;;13.10;99.90;;;;;;5046887;28;20740;-68
2022/05/28 07:00:30;;;;;;;12.57;11.30;;;13.00;99.90;;;;;;5045105;28;20471;-69
2022/05/28 07:02:58;;;;;;;13.80;11.63;;;13.00;99.90;;;;;;5047147;28;21740;-69
2022/05/28 07:05:25;;;;;;;13.57;12.10;;;13.00;99.90;;;;;;5046520;28;20992;-68
2022/05/28 07:07:52;;;;;;;13.53;12.07;;;13.00;99.90;;;;;;5046655;28;20443;-68
2022/05/28 07:10:19;;;;;;;12.80;11.90;;;13.10;99.90;;;;;;5046816;28;20466;-67
2022/05/28 07:12:46;;;;;;;16.60;11.90;;;13.20;99.90;;;;;;5046715;28;20980;-68
2022/05/28 07:15:13;;;;;;;12.13;11.47;;;13.40;99.90;;;;;;5046367;28;20659;-68
2022/05/28 07:17:41;;;;;;;15.47;12.10;;;13.60;99.90;;;;;;5047518;28;20479;-67
2022/05/28 07:20:11;;;;;;;14.80;13.23;;;13.80;99.90;;;;;;5045860;28;20472;-67
2022/05/28 07:22:38;;;;;;;14.73;13.40;;;13.90;99.90;;;;;;5047413;28;20837;-67
2022/05/28 07:25:07;;;;;;;12.90;12.20;;;13.80;99.90;;;;;;5052582;28;20467;-68
2022/05/28 07:27:33;;;;;;;13.53;12.30;;;13.90;99.90;;;;;;5053582;28;20466;-68
2022/05/28 07:30:01;;;;;;;17.43;12.73;;;14.10;99.90;;;;;;5053139;28;21038;-67
2022/05/28 07:32:30;;;;;;;13.10;12.07;;;14.20;99.90;;;;;;5053719;28;21111;-67
2022/05/28 07:34:57;;;;;;;13.33;12.47;;;14.30;99.90;;;;;;5053866;28;20851;-67
2022/05/28 07:37:26;;;;;;;13.63;12.50;;;14.30;99.90;;;;;;5053979;28;20925;-68
2022/05/28 07:39:53;;;;;;;13.90;12.87;;;14.30;99.90;;;;;;5053134;28;21071;-68
2022/05/28 07:42:19;;;;;;;13.27;12.37;;;14.20;99.90;;;;;;5053763;28;21303;-67
2022/05/28 07:44:46;;;;;;;13.93;12.93;;;14.00;99.90;;;;;;5052587;28;20482;-67
2022/05/28 07:47:13;;;;;;;13.17;12.37;;;13.80;99.90;;;;;;5054248;28;20462;-68
2022/05/28 07:49:40;;;;;;;13.73;12.83;;;13.80;99.90;;;;;;5051852;28;21032;-68
2022/05/28 07:52:08;;;;;;;14.03;12.93;;;13.70;99.90;;;;;;5053983;28;20470;-67
2022/05/28 07:54:37;;;;;;;12.67;11.87;;;13.90;99.90;;;;;;5053536;28;20567;-66
2022/05/28 07:57:05;;;;;;;14.23;13.23;;;13.90;99.90;;;;;;5053063;28;20501;-67
2022/05/28 07:59:32;;;;;;;14.60;13.17;;;14.10;99.90;;;;;;5052931;28;20465;-68
2022/05/28 08:01:59;;;;;;;12.70;12.00;;;14.40;99.90;;;;;;5052810;28;20462;-68
2022/05/28 08:04:26;;;;;;;14.03;12.60;;;14.60;99.90;;;;;;5053170;28;20461;-67
2022/05/28 08:06:53;;;;;;;12.83;12.13;;;15.00;99.90;;;;;;5053106;28;21367;-68
2022/05/28 08:09:20;;;;;;;13.90;12.73;;;15.40;99.90;;;;;;5053746;28;21118;-67
2022/05/28 08:11:48;;;;;;;13.97;12.70;;;16.00;99.90;;;;;;5053104;28;20465;-68
2022/05/28 08:14:15;;;;;;;13.63;12.73;;;16.80;99.90;;;;;;5053195;28;20844;-67
2022/05/28 08:16:42;;;;;;;14.10;12.90;;;16.80;99.90;;;;;;5052701;28;20462;-68
2022/05/28 08:19:08;;;;;;;13.93;13.10;;;16.10;99.90;;;;;;5052969;28;21130;-67
2022/05/28 08:24:20;;;;;;;13.77;12.80;;;15.70;99.90;;;;;;5053226;28;20478;-67
2022/05/28 08:26:48;;;;;;;14.50;13.30;;;16.40;99.90;;;;;;5052880;28;20458;-68
2022/05/28 08:29:15;;;;;;;14.83;13.63;;;16.80;99.90;;;;;;5053179;28;20517;-67
2022/05/28 08:31:42;;;;;;;13.73;12.90;;;17.20;99.80;;;;;;5052851;28;20476;-67
2022/05/28 08:34:09;;;;;;;13.87;13.17;;;17.70;99.90;;;;;;5053918;28;20459;-68
2022/05/28 08:36:36;;;;;;;12.60;12.10;;;18.10;99.70;;;;;;5049960;28;20554;-68
2022/05/28 08:39:03;;;;;;;13.30;12.50;;;18.30;99.90;;;;;;5049561;28;20474;-68
2022/05/28 08:41:38;;;;;;;13.20;12.50;;;17.90;99.50;;;;;;5049925;28;20467;-67
2022/05/28 08:44:16;;;;;;;13.90;12.90;;;17.60;99.40;;;;;;5050045;28;20991;-68
2022/05/28 08:46:44;;;;;;;13.80;12.67;;;17.90;99.50;;;;;;5049674;28;20814;-68
2022/05/28 08:49:15;;;;;;;13.47;12.47;;;18.00;98.70;;;;;;5049728;28;20482;-68
2022/05/28 08:51:48;;;;;;;13.80;12.90;;;17.30;98.80;;;;;;5049364;28;20487;-67
2022/05/28 08:54:23;;;;;;;13.47;12.47;;;16.80;99.80;;;;;;5050022;28;20809;-68
2022/05/28 08:56:52;;;;;;;14.00;13.10;;;16.10;99.90;;;;;;5049785;28;20466;-67
2022/05/28 08:59:25;;;;;;;12.40;11.90;;;16.00;99.90;;;;;;5049276;28;20485;-68
2022/05/28 09:01:53;;;;;;;12.80;12.00;;;16.40;99.90;;;;;;5048870;28;20493;-68
2022/05/28 09:04:23;;;;;;;13.30;12.33;;;17.10;99.90;;;;;;5048950;28;21000;-67
2022/05/28 09:06:53;;;;;;;13.23;12.43;;;17.50;99.90;;;;;;5049151;28;21313;-67
2022/05/28 09:09:27;;;;;;;13.50;12.40;;;17.30;99.00;;;;;;5047647;28;21371;-68
2022/05/28 09:12:04;;;;;;;14.43;13.63;;;17.50;99.50;;;;;;5049217;28;20974;-68
2022/05/28 09:14:37;;;;;;;12.97;12.33;;;18.00;96.80;;;;;;5049697;28;20462;-69
2022/05/28 09:17:08;;;;;;;12.73;12.03;;;18.20;98.60;;;;;;5049089;28;20473;-68
2022/05/28 09:19:40;;;;;;;14.10;12.80;;;18.90;95.30;;;;;;5048843;28;20586;-68
2022/05/28 09:22:07;;;;;;;12.43;11.70;;;19.00;93.90;;;;;;5048760;28;20474;-68
2022/05/28 09:24:35;;;;;;;13.07;12.17;;;19.30;95.50;;;;;;5048935;28;20972;-68
2022/05/28 09:27:07;;;;;;;13.03;12.27;;;19.80;93.50;;;;;;5048652;28;20528;-68
2022/05/28 09:30:04;;;;;;;12.67;12.07;;;19.40;94.80;;;;;;5048467;28;20481;-68
2022/05/28 09:32:48;;;;;;;12.80;11.93;;;19.10;91.70;;;;;;5033319;28;20461;-67
2022/05/28 09:35:22;;;;;;;13.60;12.73;;;19.00;92.70;;;;;;5048435;28;20833;-68
2022/05/28 09:37:58;;;;;;;13.10;12.40;;;19.70;90.90;;;;;;5048863;28;21274;-68
2022/05/28 09:40:37;;;;;;;13.27;12.37;;;19.60;90.70;;;;;;5048476;28;20466;-68
2022/05/28 09:43:33;;;;;;;13.57;12.67;;;19.60;90.10;;;;;;5047927;28;20549;-68
2022/05/28 09:46:12;;;;;;;12.87;12.27;;;19.70;88.60;;;;;;5046634;28;20487;-68
2022/05/28 09:48:39;;;;;;;12.93;12.13;;;18.40;88.40;;;;;;5047945;28;20554;-67
2022/05/28 09:51:22;;;;;;;13.27;12.10;;;17.10;90.30;;;;;;5048322;28;20461;-68
2022/05/28 09:56:37;;;;;;;13.13;12.40;;;17.30;93.10;;;;;;5048746;28;20570;-68
2022/05/28 09:59:18;;;;;;;13.00;12.20;;;17.80;91.50;;;;;;5047966;28;20989;-68
2022/05/28 10:01:55;;;;;;;13.23;12.33;;;17.50;90.80;;;;;;5048425;28;20812;-69
2022/05/28 10:04:31;;;;;;;12.33;11.70;;;18.10;90.70;;;;;;5048463;28;21017;-68
2022/05/28 10:07:00;;;;;;;12.97;12.07;;;19.20;89.90;;;;;;5048189;28;20488;-68
2022/05/28 10:09:30;;;;;;;12.50;11.73;;;20.10;86.00;;;;;;5048037;28;21052;-68
2022/05/28 10:11:59;;;;;;;13.07;12.10;;;19.10;81.00;;;;;;5048161;28;21168;-68
2022/05/28 10:14:29;;;;;;;12.63;12.03;;;18.60;83.80;;;;;;5048295;28;20493;-68
2022/05/28 10:17:00;;;;;;;12.93;12.23;;;18.00;86.90;;;;;;5047321;28;20473;-68
2022/05/28 10:19:35;;;;;;;14.17;12.40;;;18.20;86.70;;;;;;5047661;28;21389;-69
2022/05/28 10:22:05;;;;;;;12.40;11.70;;;19.30;88.90;;;;;;5075298;28;20474;-68
2022/05/28 10:24:42;;;;;;;12.80;12.10;;;20.00;84.70;;;;;;5086383;28;20462;-69
2022/05/28 10:27:25;;;;;;;13.00;12.10;;;19.30;81.70;;;;;;5049061;28;20458;-69
2022/05/28 10:29:54;;;;;;;13.33;12.30;;;18.40;86.00;;;;;;5047597;28;20483;-69
2022/05/28 10:32:29;;;;;;;13.27;12.30;;;19.00;83.00;;;;;;5047428;28;21145;-69
2022/05/28 10:35:02;;;;;;;12.80;12.10;;;19.10;81.30;;;;;;5047829;28;20458;-69
2022/05/28 10:37:30;;;;;;;13.33;12.40;;;18.90;82.70;;;;;;5047741;28;20459;-69
2022/05/28 10:40:12;;;;;;;13.03;12.27;;;18.60;88.80;;;;;;5047352;28;21260;-69
2022/05/28 10:42:39;;;;;;;12.73;11.93;;;18.10;90.20;;;;;;5048553;28;20969;-69
2022/05/28 10:45:09;;;;;;;12.20;11.40;;;17.70;90.80;;;;;;5047592;28;20493;-68
2022/05/28 10:48:06;;;;;;;12.73;11.80;;;18.30;91.30;;;;;;5047884;28;20486;-68
2022/05/28 10:50:44;;;;;;;12.27;11.07;;;19.20;87.40;;;;;;5047363;28;20486;-69
2022/05/28 10:53:22;;;;;;;12.90;12.40;;;19.60;83.60;;;;;;5046323;28;20455;-69
2022/05/28 10:56:12;;;;;;;12.93;12.03;;;19.90;76.10;;;;;;5048047;28;20465;-69
2022/05/28 10:58:55;;;;;;;12.13;11.40;;;19.10;81.80;;;;;;5046411;28;20459;-68
2022/05/28 11:01:36;;;;;;;12.77;11.33;;;19.00;88.70;;;;;;5047209;28;21240;-70
2022/05/28 11:04:34;;;;;;;12.07;10.90;;;19.30;88.40;;;;;;5046425;28;20961;-69
2022/05/28 11:07:32;;;;;;;13.10;11.90;;;19.80;84.30;;;;;;5046067;28;20447;-69
2022/05/28 11:10:16;;;;;;;12.20;11.50;;;20.20;83.80;;;;;;5047344;28;21274;-69
2022/05/28 11:13:00;;;;;;;11.70;11.00;;;20.90;77.00;;;;;;5046875;28;20486;-68
2022/05/28 11:16:06;;;;;;;11.77;11.17;;;21.10;69.60;;;;;;5046127;28;20458;-67
2022/05/28 11:19:05;;;;;;;12.50;11.50;;;21.00;68.60;;;;;;5016260;28;21835;-67
2022/05/28 11:21:50;;;;;;;13.17;12.10;;;21.20;72.30;;;;;;5047021;28;20459;-67
2022/05/28 11:24:50;;;;;;;15.53;12.87;;;20.70;76.40;;;;;;5047587;28;20455;-67
2022/05/28 11:27:30;;;;;;;11.93;11.27;;;20.10;73.10;;;;;;5047054;28;20490;-67
2022/05/28 11:30:06;;;;;;;12.47;11.60;;;19.30;74.70;;;;;;5045809;28;21044;-67
2022/05/28 11:32:36;;;;;;;12.20;11.30;;;19.80;76.80;;;;;;5047049;28;20548;-67
2022/05/28 11:35:07;;;;;;;11.63;11.00;;;20.10;73.80;;;;;;5046538;28;20458;-68
2022/05/28 11:37:40;;;;;;;11.63;11.03;;;21.00;69.40;;;;;;5046747;28;21070;-67
2022/05/28 11:40:15;;;;;;;11.47;10.67;;;21.50;72.00;;;;;;5046756;28;20912;-67
2022/05/28 11:42:47;;;;;;;11.87;11.17;;;20.80;65.60;;;;;;5045649;28;20490;-68
2022/05/28 11:45:21;;;;;;;11.63;11.07;;;20.70;71.10;;;;;;5046119;28;20487;-67
2022/05/28 11:47:58;;;;;;;12.40;11.50;;;21.10;69.40;;;;;;5046715;28;20517;-67
2022/05/28 11:53:25;;;;;;;12.50;11.27;;;22.30;66.80;;;;;;5047224;28;20528;-67
2022/05/28 11:55:56;;;;;;;12.70;11.50;;;22.30;63.10;;;;;;5046025;28;20451;-68
2022/05/28 11:58:28;;;;;;;12.00;11.20;;;22.40;61.90;;;;;;5046770;28;20450;-68
2022/05/28 12:00:59;;;;;;;11.87;11.30;;;22.70;63.50;;;;;;5046270;28;20458;-68
2022/05/28 12:03:28;;;;;;;12.70;11.87;;;22.30;58.40;;;;;;5046322;28;20495;-68
2022/05/28 12:06:08;;;;;;;12.27;11.20;;;22.00;58.70;;;;;;5046492;28;20557;-69
2022/05/28 12:08:42;;;;;;;12.37;11.57;;;20.90;55.60;;;;;;5046062;28;20565;-68
2022/05/28 12:11:22;;;;;;;12.33;11.73;;;19.60;58.50;;;;;;5050973;28;20553;-68
2022/05/28 12:13:52;;;;;;;11.77;11.10;;;19.00;61.50;;;;;;5077701;28;20537;-68
2022/05/28 12:16:33;;;;;;;12.37;11.50;;;19.10;65.00;;;;;;5061592;28;20503;-68
2022/05/28 12:19:02;;;;;;;11.60;11.10;;;20.70;66.30;;;;;;5048696;28;20472;-68
2022/05/28 12:21:30;;;;;;;12.57;11.57;;;20.30;62.90;;;;;;5050412;28;20467;-68
2022/05/28 12:24:11;;;;;;;12.40;11.60;;;20.00;67.00;;;;;;5050165;28;20461;-68
2022/05/28 12:29:33;;;;;;;11.90;11.20;;;21.50;62.40;;;;;;5049849;28;20474;-68
2022/05/28 12:32:11;;;;;;;11.90;11.27;;;20.60;62.00;;;;;;5049795;28;20566;-69
2022/05/28 12:34:40;;;;;;;12.37;11.47;;;21.10;66.90;;;;;;5049398;28;20551;-68
2022/05/28 12:37:17;;;;;;;11.10;10.60;;;21.90;62.10;;;;;;5049810;28;20953;-68
2022/05/28 12:39:56;;;;;;;11.97;10.97;;;21.50;61.60;;;;;;5049784;28;20768;-68
2022/05/28 12:42:30;;;;;;;11.43;10.73;;;21.50;62.50;;;;;;5049551;28;20980;-69
2022/05/28 12:44:58;;;;;;;11.43;10.83;;;21.90;60.40;;;;;;5050249;28;20995;-68
2022/05/28 12:47:28;;;;;;;11.43;10.93;;;21.50;62.60;;;;;;5049769;28;20828;-68
2022/05/28 12:50:03;;;;;;;12.50;11.90;;;21.30;61.50;;;;;;5049967;28;20603;-69
2022/05/28 12:52:39;;;;;;;12.47;11.77;;;22.00;64.10;;;;;;5049469;28;20825;-69
2022/05/28 12:55:29;;;;;;;12.60;11.70;;;22.40;60.40;;;;;;5049539;28;20960;-68
2022/05/28 12:58:04;;;;;;;16.23;15.20;;;22.00;59.80;;;;;;5049683;28;20459;-68
2022/05/28 13:00:37;;;;;;;12.53;11.67;;;22.40;56.70;;;;;;5048589;28;20471;-68
2022/05/28 13:03:07;;;;;;;12.40;11.40;;;22.50;58.40;;;;;;5049157;28;20539;-68
2022/05/28 13:05:38;;;;;;;12.60;11.70;;;22.20;57.00;;;;;;5049479;28;20662;-68
2022/05/28 13:08:09;;;;;;;12.73;11.77;;;21.70;55.60;;;;;;5049618;28;21203;-69